Time,TemperatureF,DewpointF,PressureIn,WindDirection,WindDirectionDegrees,WindSpeedMPH,WindSpeedGustMPH,Humidity,HourlyPrecipIn,Conditions,Clouds,dailyrainin,SolarRadiationWatts/m^2,SoftwareType,DateUTC
2013-01-16 00:00:00,19.2,-1.2,30.50,SSW,196,0.0,10.0,40,0.00,,,0.00,0,Wunderground v.1.15,2013-01-16 07:00:00,
2013-01-16 00:09:00,19.4,-1.0,30.51,SSW,196,0.0,10.0,40,0.00,,,0.00,0,Wunderground v.1.15,2013-01-16 07:09:00,
2013-01-16 00:20:00,20.2,-0.8,30.51,SSW,196,0.0,10.0,39,0.00,,,0.00,0,Wunderground v.1.15,2013-01-16 07:20:00,
2013-01-16 00:29:00,20.6,-0.5,30.50,SSW,196,0.0,10.0,39,0.00,,,0.00,0,Wunderground v.1.15,2013-01-16 07:29:00,
2013-01-16 00:40:00,21.7,-0.6,30.50,SSW,196,0.0,10.0,37,0.00,,,0.00,0,Wunderground v.1.15,2013-01-16 07:40:00,
2013-01-16 00:49:00,20.9,-0.2,30.50,SSW,205,0.0,10.0,39,0.00,,,0.00,0,Wunderground v.1.15,2013-01-16 07:49:00,
2013-01-16 00:59:00,20.3,-0.2,30.51,SW,225,0.0,10.0,40,0.00,,,0.00,0,Wunderground v.1.15,2013-01-16 07:59:00,
2013-01-16 01:09:00,20.6,0.1,30.51,SW,225,0.0,10.0,40,0.00,,,0.00,0,Wunderground v.1.15,2013-01-16 08:09:00,
2013-01-16 01:20:00,21.6,-0.1,30.51,SW,225,0.0,10.0,38,0.00,,,0.00,0,Wunderground v.1.15,2013-01-16 08:20:00,
2013-01-16 01:30:00,20.7,-0.4,30.51,SW,225,0.0,10.0,39,0.00,,,0.00,0,Wunderground v.1.15,2013-01-16 08:30:00,
2013-01-16 01:39:00,20.0,-0.5,30.51,SW,225,0.0,10.0,40,0.00,,,0.00,0,Wunderground v.1.15,2013-01-16 08:39:00,
2013-01-16 01:49:00,19.6,-0.3,30.52,WSW,256,0.0,10.0,41,0.00,,,0.00,0,Wunderground v.1.15,2013-01-16 08:49:00,
2013-01-16 01:59:00,20.0,0.0,30.53,WSW,256,0.0,10.0,41,0.00,,,0.00,0,Wunderground v.1.15,2013-01-16 08:59:00,
2013-01-16 02:10:00,20.1,0.1,30.52,WSW,256,0.0,10.0,41,0.00,,,0.00,0,Wunderground v.1.15,2013-01-16 09:10:00,
2013-01-16 02:20:00,18.4,0.1,30.52,WSW,256,0.0,10.0,44,0.00,,,0.00,0,Wunderground v.1.15,2013-01-16 09:20:00,
2013-01-16 02:29:00,18.9,0.5,30.52,WNW,298,0.0,10.0,44,0.00,,,0.00,0,Wunderground v.1.15,2013-01-16 09:29:00,
2013-01-16 02:39:00,20.6,1.6,30.52,West,261,0.0,10.0,43,0.00,,,0.00,0,Wunderground v.1.15,2013-01-16 09:39:00,
2013-01-16 02:50:00,19.1,0.7,30.53,South,179,0.0,10.0,44,0.00,,,0.00,0,Wunderground v.1.15,2013-01-16 09:50:00,
2013-01-16 02:59:00,18.2,0.4,30.52,South,179,0.0,10.0,45,0.00,,,0.00,0,Wunderground v.1.15,2013-01-16 09:59:00,
2013-01-16 03:09:00,18.2,0.9,30.52,South,179,0.0,10.0,46,0.00,,,0.00,0,Wunderground v.1.15,2013-01-16 10:09:00,
2013-01-16 03:20:00,18.5,0.7,30.51,West,272,0.0,10.0,45,0.00,,,0.00,0,Wunderground v.1.15,2013-01-16 10:20:00,
2013-01-16 03:30:00,18.7,0.8,30.52,West,281,0.0,10.0,45,0.00,,,0.00,0,Wunderground v.1.15,2013-01-16 10:30:00,
2013-01-16 03:39:00,19.3,0.9,30.52,West,281,0.0,10.0,44,0.00,,,0.00,0,Wunderground v.1.15,2013-01-16 10:39:00,
2013-01-16 03:49:00,21.8,0.6,30.51,WNW,295,0.0,10.0,39,0.00,,,0.00,0,Wunderground v.1.15,2013-01-16 10:49:00,
2013-01-16 03:59:00,22.3,0.5,30.51,WNW,294,2.0,10.0,38,0.00,,,0.00,0,Wunderground v.1.15,2013-01-16 10:59:00,
2013-01-16 04:10:00,21.8,0.6,30.51,NW,309,1.0,1.0,39,0.00,,,0.00,0,Wunderground v.1.15,2013-01-16 11:10:00,
2013-01-16 04:19:00,18.6,0.3,30.51,NW,309,0.0,10.0,44,0.00,,,0.00,0,Wunderground v.1.15,2013-01-16 11:19:00,
2013-01-16 04:29:00,18.1,0.3,30.50,NW,309,0.0,10.0,45,0.00,,,0.00,0,Wunderground v.1.15,2013-01-16 11:29:00,
2013-01-16 04:40:00,19.4,0.5,30.50,NW,309,0.0,10.0,43,0.00,,,0.00,0,Wunderground v.1.15,2013-01-16 11:40:00,
2013-01-16 04:50:00,21.4,0.8,30.50,WNW,301,0.0,10.0,40,0.00,,,0.00,0,Wunderground v.1.15,2013-01-16 11:50:00,
2013-01-16 05:00:00,23.0,0.6,30.50,WNW,301,0.0,10.0,37,0.00,,,0.00,0,Wunderground v.1.15,2013-01-16 12:00:00,
2013-01-16 05:10:00,23.5,0.4,30.50,WNW,298,0.0,10.0,36,0.00,,,0.00,0,Wunderground v.1.15,2013-01-16 12:10:00,
2013-01-16 05:20:00,20.1,0.6,30.50,WNW,298,0.0,10.0,42,0.00,,,0.00,0,Wunderground v.1.15,2013-01-16 12:20:00,
2013-01-16 05:29:00,19.2,0.3,30.50,WNW,298,0.0,10.0,43,0.00,,,0.00,0,Wunderground v.1.15,2013-01-16 12:29:00,
2013-01-16 05:39:00,18.9,0.1,30.50,WNW,298,0.0,10.0,43,0.00,,,0.00,0,Wunderground v.1.15,2013-01-16 12:39:00,
2013-01-16 05:50:00,19.2,0.3,30.50,WNW,298,0.0,10.0,43,0.00,,,0.00,0,Wunderground v.1.15,2013-01-16 12:50:00,
2013-01-16 06:00:00,20.5,0.0,30.50,WNW,298,0.0,10.0,40,0.00,,,0.00,0,Wunderground v.1.15,2013-01-16 13:00:00,
2013-01-16 06:10:00,20.4,-0.1,30.50,WNW,298,0.0,0.0,40,0.00,,,0.00,0,Wunderground v.1.15,2013-01-16 13:10:00,
2013-01-16 06:20:00,20.7,0.1,30.50,WNW,298,0.0,0.0,40,0.00,,,0.00,0,Wunderground v.1.15,2013-01-16 13:20:00,
2013-01-16 06:30:00,20.7,0.7,30.50,WNW,298,0.0,0.0,41,0.00,,,0.00,0,Wunderground v.1.15,2013-01-16 13:30:00,
2013-01-16 06:39:00,20.5,0.5,30.50,WNW,298,0.0,0.0,41,0.00,,,0.00,0,Wunderground v.1.15,2013-01-16 13:39:00,
2013-01-16 06:50:00,20.6,0.6,30.49,WNW,298,0.0,0.0,41,0.00,,,0.00,0,Wunderground v.1.15,2013-01-16 13:50:00,
2013-01-16 07:00:00,20.5,0.5,30.50,NW,304,0.0,0.0,41,0.00,,,0.00,0,Wunderground v.1.15,2013-01-16 14:00:00,
2013-01-16 07:09:00,18.6,0.3,30.50,NW,304,0.0,0.0,44,0.00,,,0.00,0,Wunderground v.1.15,2013-01-16 14:09:00,
2013-01-16 07:20:00,18.4,0.6,30.50,NW,304,0.0,0.0,45,0.00,,,0.00,5,Wunderground v.1.15,2013-01-16 14:20:00,
2013-01-16 07:30:00,20.5,1.0,30.50,NW,304,0.0,0.0,42,0.00,,,0.00,9,Wunderground v.1.15,2013-01-16 14:30:00,
2013-01-16 07:40:00,20.3,1.3,30.51,NW,304,0.0,0.0,43,0.00,,,0.00,14,Wunderground v.1.15,2013-01-16 14:40:00,
2013-01-16 07:50:00,19.3,2.3,30.51,NW,304,0.0,0.0,47,0.00,,,0.00,35,Wunderground v.1.15,2013-01-16 14:50:00,
2013-01-16 07:59:00,20.3,2.3,30.51,NW,304,0.0,0.0,45,0.00,,,0.00,62,Wunderground v.1.15,2013-01-16 14:59:00,
2013-01-16 08:10:00,22.3,2.6,30.52,NW,304,0.0,0.0,42,0.00,,,0.00,97,Wunderground v.1.15,2013-01-16 15:10:00,
2013-01-16 08:19:00,24.5,3.0,30.52,NW,304,0.0,0.0,39,0.00,,,0.00,137,Wunderground v.1.15,2013-01-16 15:19:00,
2013-01-16 08:29:00,26.2,3.4,30.52,NW,304,0.0,0.0,37,0.00,,,0.00,174,Wunderground v.1.15,2013-01-16 15:29:00,
2013-01-16 08:40:00,28.3,3.5,30.53,NW,304,0.0,0.0,34,0.00,,,0.00,214,Wunderground v.1.15,2013-01-16 15:40:00,
2013-01-16 08:49:00,30.0,4.3,30.53,NW,305,0.0,0.0,33,0.00,,,0.00,248,Wunderground v.1.15,2013-01-16 15:49:00,
2013-01-16 08:59:00,31.4,4.9,30.53,NW,305,0.0,0.0,32,0.00,,,0.00,278,Wunderground v.1.15,2013-01-16 15:59:00,
2013-01-16 09:10:00,32.9,1.7,30.54,NW,305,0.0,0.0,26,0.00,,,0.00,308,Wunderground v.1.15,2013-01-16 16:10:00,
2013-01-16 13:00:00,52.6,6.2,30.43,ESE,123,7.0,7.0,15,0.00,,,0.00,645,Wunderground v.1.15,2013-01-16 20:00:00,
2013-01-16 13:10:00,52.4,4.5,30.42,ESE,111,9.0,9.0,14,0.00,,,0.00,638,Wunderground v.1.15,2013-01-16 20:10:00,
2013-01-16 13:20:00,52.3,4.4,30.41,ESE,116,9.0,9.0,14,0.00,,,0.00,631,Wunderground v.1.15,2013-01-16 20:20:00,
2013-01-16 13:30:00,52.2,4.3,30.41,ESE,116,9.0,9.0,14,0.00,,,0.00,621,Wunderground v.1.15,2013-01-16 20:30:00,
2013-01-16 13:40:00,52.2,4.3,30.40,SSE,152,7.0,7.0,14,0.00,,,0.00,608,Wunderground v.1.15,2013-01-16 20:40:00,
2013-01-16 13:49:00,51.9,5.6,30.40,SE,139,5.0,13.0,15,0.00,,,0.00,596,Wunderground v.1.15,2013-01-16 20:49:00,
2013-01-16 14:00:00,52.0,5.7,30.40,SE,133,5.0,13.0,15,0.00,,,0.00,582,Wunderground v.1.15,2013-01-16 21:00:00,
2013-01-16 14:09:00,51.6,5.4,30.38,ESE,121,8.0,13.0,15,0.00,,,0.00,564,Wunderground v.1.15,2013-01-16 21:09:00,
2013-01-16 14:20:00,52.1,5.8,30.39,ESE,107,7.0,7.0,15,0.00,,,0.00,548,Wunderground v.1.15,2013-01-16 21:20:00,
2013-01-16 14:30:00,52.7,6.3,30.39,ESE,115,7.0,13.0,15,0.00,,,0.00,527,Wunderground v.1.15,2013-01-16 21:30:00,
2013-01-16 14:40:00,53.2,6.7,30.38,ESE,114,6.0,6.0,15,0.00,,,0.00,506,Wunderground v.1.15,2013-01-16 21:40:00,
2013-01-16 14:50:00,52.9,6.4,30.38,East,92,6.0,6.0,15,0.00,,,0.00,485,Wunderground v.1.15,2013-01-16 21:50:00,
2013-01-16 15:00:00,53.3,6.7,30.37,ESE,119,6.0,13.0,15,0.00,,,0.00,459,Wunderground v.1.15,2013-01-16 22:00:00,
2013-01-16 15:10:00,53.5,6.9,30.38,ESE,122,5.0,6.0,15,0.00,,,0.00,434,Wunderground v.1.15,2013-01-16 22:10:00,
2013-01-16 15:19:00,53.9,5.7,30.37,ESE,109,6.0,6.0,14,0.00,,,0.00,410,Wunderground v.1.15,2013-01-16 22:19:00,
2013-01-16 15:29:00,54.0,5.8,30.37,SSE,148,6.0,6.0,14,0.00,,,0.00,381,Wunderground v.1.15,2013-01-16 22:29:00,
2013-01-16 15:39:00,54.2,5.9,30.37,SE,140,6.0,6.0,14,0.00,,,0.00,352,Wunderground v.1.15,2013-01-16 22:39:00,
2013-01-16 15:49:00,54.1,5.9,30.37,SSE,151,4.0,4.0,14,0.00,,,0.00,323,Wunderground v.1.15,2013-01-16 22:49:00,
2013-01-16 15:59:00,54.3,6.0,30.37,ESE,120,4.0,4.0,14,0.00,,,0.00,290,Wunderground v.1.15,2013-01-16 22:59:00,
2013-01-16 16:09:00,54.2,7.5,30.37,ESE,108,5.0,5.0,15,0.00,,,0.00,255,Wunderground v.1.15,2013-01-16 23:09:00,
2013-01-16 16:20:00,54.0,7.3,30.37,ESE,123,4.0,4.0,15,0.00,,,0.00,216,Wunderground v.1.15,2013-01-16 23:20:00,
2013-01-16 16:29:00,53.8,7.1,30.37,SE,125,3.0,14.0,15,0.00,,,0.00,178,Wunderground v.1.15,2013-01-16 23:29:00,
2013-01-16 16:39:00,53.6,7.0,30.37,SE,128,5.0,5.0,15,0.00,,,0.00,137,Wunderground v.1.15,2013-01-16 23:39:00,
2013-01-16 16:49:00,53.1,8.0,30.37,ESE,115,4.0,14.0,16,0.00,,,0.00,97,Wunderground v.1.15,2013-01-16 23:49:00,
2013-01-16 16:59:00,52.7,7.7,30.37,SE,138,4.0,14.0,16,0.00,,,0.00,63,Wunderground v.1.15,2013-01-16 23:59:00,
2013-01-16 17:09:00,52.0,7.1,30.38,SE,128,2.0,2.0,16,0.00,,,0.00,35,Wunderground v.1.15,2013-01-17 00:09:00,
2013-01-16 17:19:00,50.8,7.5,30.37,SE,138,1.0,1.0,17,0.00,,,0.00,14,Wunderground v.1.15,2013-01-17 00:19:00,
2013-01-16 17:29:00,49.3,7.5,30.37,SSE,166,0.0,0.0,18,0.00,,,0.00,11,Wunderground v.1.15,2013-01-17 00:29:00,
2013-01-16 17:39:00,48.2,6.6,30.38,SSE,164,0.0,0.0,18,0.00,,,0.00,5,Wunderground v.1.15,2013-01-17 00:39:00,
2013-01-16 17:49:00,47.5,7.2,30.38,SSE,162,0.0,0.0,19,0.00,,,0.00,0,Wunderground v.1.15,2013-01-17 00:49:00,
2013-01-16 17:59:00,45.8,6.9,30.38,SSW,196,0.0,0.0,20,0.00,,,0.00,0,Wunderground v.1.15,2013-01-17 00:59:00,
2013-01-16 18:09:00,42.5,7.2,30.38,SSW,205,0.0,11.0,23,0.00,,,0.00,0,Wunderground v.1.15,2013-01-17 01:09:00,
2013-01-16 18:19:00,43.6,7.2,30.38,SSW,212,0.0,11.0,22,0.00,,,0.00,0,Wunderground v.1.15,2013-01-17 01:19:00,
2013-01-16 18:29:00,41.3,7.2,30.39,SW,227,0.0,11.0,24,0.00,,,0.00,0,Wunderground v.1.15,2013-01-17 01:29:00,
2013-01-16 18:39:00,41.0,6.9,30.39,SW,227,0.0,11.0,24,0.00,,,0.00,0,Wunderground v.1.15,2013-01-17 01:39:00,
2013-01-16 18:49:00,41.2,7.1,30.39,SW,227,0.0,11.0,24,0.00,,,0.00,0,Wunderground v.1.15,2013-01-17 01:49:00,
2013-01-16 18:59:00,40.4,7.3,30.39,SW,227,0.0,11.0,25,0.00,,,0.00,0,Wunderground v.1.15,2013-01-17 01:59:00,
2013-01-16 19:09:00,37.2,7.0,30.39,North,11,0.0,0.0,28,0.00,,,0.00,0,Wunderground v.1.15,2013-01-17 02:09:00,
2013-01-16 19:19:00,38.7,8.3,30.39,NW,316,0.0,0.0,28,0.00,,,0.00,0,Wunderground v.1.15,2013-01-17 02:19:00,
2013-01-16 19:29:00,38.3,8.0,30.39,West,269,0.0,0.0,28,0.00,,,0.00,0,Wunderground v.1.15,2013-01-17 02:29:00,
2013-01-16 19:39:00,37.5,8.1,30.39,West,269,0.0,0.0,29,0.00,,,0.00,0,Wunderground v.1.15,2013-01-17 02:39:00,
2013-01-16 19:49:00,36.2,8.4,30.39,WSW,254,0.0,0.0,31,0.00,,,0.00,0,Wunderground v.1.15,2013-01-17 02:49:00,
2013-01-16 19:59:00,36.6,8.8,30.39,WSW,254,0.0,0.0,31,0.00,,,0.00,0,Wunderground v.1.15,2013-01-17 02:59:00,
2013-01-16 20:09:00,35.2,8.2,30.40,WSW,254,0.0,0.0,32,0.00,,,0.00,0,Wunderground v.1.15,2013-01-17 03:09:00,
2013-01-16 20:19:00,35.2,8.9,30.39,WSW,257,0.0,0.0,33,0.00,,,0.00,0,Wunderground v.1.15,2013-01-17 03:19:00,
2013-01-16 20:29:00,35.4,9.8,30.39,WSW,257,0.0,0.0,34,0.00,,,0.00,0,Wunderground v.1.15,2013-01-17 03:29:00,
2013-01-16 20:39:00,36.2,9.1,30.39,WSW,257,0.0,0.0,32,0.00,,,0.00,0,Wunderground v.1.15,2013-01-17 03:39:00,
2013-01-16 20:49:00,36.5,8.7,30.39,WSW,257,0.0,0.0,31,0.00,,,0.00,0,Wunderground v.1.15,2013-01-17 03:49:00,
2013-01-16 20:59:00,35.3,8.3,30.39,WSW,257,0.0,0.0,32,0.00,,,0.00,0,Wunderground v.1.15,2013-01-17 03:59:00,
2013-01-16 21:09:00,35.9,8.9,30.39,WSW,257,0.0,0.0,32,0.00,,,0.00,0,Wunderground v.1.15,2013-01-17 04:09:00,
2013-01-16 21:19:00,35.3,8.3,30.40,WSW,257,0.0,0.0,32,0.00,,,0.00,0,Wunderground v.1.15,2013-01-17 04:19:00,
2013-01-16 21:29:00,35.3,9.0,30.40,SSW,211,0.0,0.0,33,0.00,,,0.00,0,Wunderground v.1.15,2013-01-17 04:29:00,
2013-01-16 21:39:00,34.2,8.7,30.40,SSW,211,0.0,0.0,34,0.00,,,0.00,0,Wunderground v.1.15,2013-01-17 04:39:00,
2013-01-16 21:49:00,34.2,8.7,30.40,SSW,211,0.0,0.0,34,0.00,,,0.00,0,Wunderground v.1.15,2013-01-17 04:49:00,
2013-01-16 21:59:00,32.5,8.5,30.41,WSW,248,0.0,0.0,36,0.00,,,0.00,0,Wunderground v.1.15,2013-01-17 04:59:00,
2013-01-16 22:09:00,32.2,8.8,30.40,West,273,0.0,0.0,37,0.00,,,0.00,0,Wunderground v.1.15,2013-01-17 05:09:00,
2013-01-16 22:19:00,31.9,8.5,30.40,West,273,0.0,0.0,37,0.00,,,0.00,0,Wunderground v.1.15,2013-01-17 05:19:00,
2013-01-16 22:29:00,31.0,8.3,30.40,West,273,0.0,0.0,38,0.00,,,0.00,0,Wunderground v.1.15,2013-01-17 05:29:00,
2013-01-16 22:39:00,33.0,8.9,30.40,West,273,0.0,0.0,36,0.00,,,0.00,0,Wunderground v.1.15,2013-01-17 05:39:00,
2013-01-16 22:49:00,32.2,8.2,30.40,West,273,0.0,0.0,36,0.00,,,0.00,0,Wunderground v.1.15,2013-01-17 05:49:00,
2013-01-16 22:59:00,32.2,8.8,30.40,West,273,0.0,0.0,37,0.00,,,0.00,0,Wunderground v.1.15,2013-01-17 05:59:00,
2013-01-16 23:09:00,31.1,8.4,30.40,West,273,0.0,0.0,38,0.00,,,0.00,0,Wunderground v.1.15,2013-01-17 06:09:00,
2013-01-16 23:19:00,29.9,8.5,30.40,West,273,0.0,0.0,40,0.00,,,0.00,0,Wunderground v.1.15,2013-01-17 06:19:00,
2013-01-16 23:29:00,29.6,8.2,30.40,ESE,119,0.0,0.0,40,0.00,,,0.00,0,Wunderground v.1.15,2013-01-17 06:29:00,
2013-01-16 23:39:00,28.8,8.0,30.40,ESE,119,0.0,0.0,41,0.00,,,0.00,0,Wunderground v.1.15,2013-01-17 06:39:00,
2013-01-16 23:49:00,28.5,8.3,30.39,ESE,119,0.0,0.0,42,0.00,,,0.00,0,Wunderground v.1.15,2013-01-17 06:49:00,
2013-01-16 23:59:00,27.2,7.6,30.40,South,175,0.0,0.0,43,0.00,,,0.00,0,Wunderground v.1.15,2013-01-17 06:59:00,